MSR650 OERK-HECA
Flight info
| Callsign | MSR650 |
|---|---|
| Flight time | 2h 24m |
| Altitude | 34000 |
| Route | IVONU M321 HLF N316 RAGPU L677 CVO |
| Aircraft | B738/M-SDE2E3FGHIRWXY/LB1 |
Departure
| Time | 2026-05-04 15:30 |
|---|---|
| Airport | King Khalid International Airport (OERK) |
Arrival
| Time | 2026-05-04 17:54 |
|---|---|
| Airport | Cairo International Airport (HECA) |
| Time | Latitude | Longitude | Altitude | Speed | Heading |
|---|---|---|---|---|---|
| 2026-05-04 14:56 | 24.94483 | 46.71174 | 2031 ft | 0 kts | 239° |
| 2026-05-04 15:12 | 24.94492 | 46.71191 | 2031 ft | 4 kts | 240° |
| 2026-05-04 15:13 | 24.94505 | 46.71217 | 2031 ft | 4 kts | 241° |
| 2026-05-04 15:13 | 24.94516 | 46.71238 | 2031 ft | 3 kts | 240° |
| 2026-05-04 15:13 | 24.94527 | 46.71264 | 2031 ft | 4 kts | 262° |
| 2026-05-04 15:13 | 24.94524 | 46.71289 | 2031 ft | 4 kts | 321° |
| 2026-05-04 15:14 | 24.94503 | 46.71303 | 2040 ft | 4 kts | 329° |
| 2026-05-04 15:14 | 24.94493 | 46.71310 | 2031 ft | 0 kts | 329° |
| 2026-05-04 15:17 | 24.94496 | 46.71308 | 2031 ft | 1 kts | 329° |
| 2026-05-04 15:18 | 24.94510 | 46.71299 | 2033 ft | 3 kts | 329° |
| 2026-05-04 15:18 | 24.94536 | 46.71282 | 2031 ft | 5 kts | 329° |
| 2026-05-04 15:18 | 24.94567 | 46.71261 | 2031 ft | 7 kts | 329° |
| 2026-05-04 15:19 | 24.94670 | 46.71197 | 2031 ft | 10 kts | 331° |
| 2026-05-04 15:19 | 24.94732 | 46.71158 | 2034 ft | 11 kts | 330° |
| 2026-05-04 15:19 | 24.94876 | 46.71067 | 2039 ft | 13 kts | 330° |
| 2026-05-04 15:20 | 24.94960 | 46.71014 | 2038 ft | 14 kts | 330° |
| 2026-05-04 15:20 | 24.95048 | 46.70958 | 2039 ft | 15 kts | 330° |
| 2026-05-04 15:20 | 24.95140 | 46.70900 | 2030 ft | 16 kts | 330° |
| 2026-05-04 15:20 | 24.95235 | 46.70896 | 2037 ft | 15 kts | 56° |
| 2026-05-04 15:21 | 24.95287 | 46.70996 | 2033 ft | 15 kts | 58° |
| 2026-05-04 15:21 | 24.95341 | 46.71095 | 2030 ft | 15 kts | 60° |
| 2026-05-04 15:21 | 24.95457 | 46.71267 | 2037 ft | 11 kts | 348° |
| 2026-05-04 15:22 | 24.95527 | 46.71224 | 2036 ft | 12 kts | 330° |
| 2026-05-04 15:22 | 24.95604 | 46.71176 | 2034 ft | 13 kts | 330° |
| 2026-05-04 15:22 | 24.95772 | 46.71069 | 2030 ft | 14 kts | 329° |
| 2026-05-04 15:23 | 24.95855 | 46.71016 | 2029 ft | 14 kts | 330° |
| 2026-05-04 15:23 | 24.95940 | 46.70963 | 2037 ft | 15 kts | 330° |
| 2026-05-04 15:23 | 24.96031 | 46.70905 | 2035 ft | 15 kts | 329° |
| 2026-05-04 15:23 | 24.96120 | 46.70848 | 2032 ft | 15 kts | 330° |
| 2026-05-04 15:24 | 24.96288 | 46.70742 | 2036 ft | 13 kts | 330° |
| 2026-05-04 15:24 | 24.96451 | 46.70640 | 2036 ft | 15 kts | 330° |
| 2026-05-04 15:25 | 24.96545 | 46.70580 | 2034 ft | 16 kts | 329° |
| 2026-05-04 15:25 | 24.96638 | 46.70521 | 2031 ft | 15 kts | 331° |
| 2026-05-04 15:25 | 24.96728 | 46.70464 | 2035 ft | 15 kts | 330° |
| 2026-05-04 15:26 | 24.96901 | 46.70354 | 2032 ft | 14 kts | 330° |
| 2026-05-04 15:26 | 24.96987 | 46.70300 | 2029 ft | 15 kts | 330° |
| 2026-05-04 15:26 | 24.97168 | 46.70186 | 2032 ft | 15 kts | 330° |
| 2026-05-04 15:27 | 24.97260 | 46.70128 | 2035 ft | 16 kts | 330° |
| 2026-05-04 15:27 | 24.97437 | 46.70108 | 2033 ft | 15 kts | 59° |
| 2026-05-04 15:28 | 24.97504 | 46.70306 | 2031 ft | 14 kts | 121° |
| 2026-05-04 15:28 | 24.97424 | 46.70366 | 2033 ft | 14 kts | 150° |
| 2026-05-04 15:28 | 24.96779 | 46.70774 | 2034 ft | 117 kts | 150° |
| 2026-05-04 15:29 | 24.95957 | 46.71295 | 2042 ft | 169 kts | 150° |
| 2026-05-04 15:30 | 24.91419 | 46.74907 | 4142 ft | 230 kts | 139° |
| 2026-05-04 15:30 | 24.87524 | 46.78524 | 5211 ft | 259 kts | 144° |
| 2026-05-04 15:31 | 24.84281 | 46.80437 | 6061 ft | 278 kts | 153° |
| 2026-05-04 15:31 | 24.82534 | 46.81405 | 6572 ft | 288 kts | 153° |
| 2026-05-04 15:32 | 24.78316 | 46.83614 | 8273 ft | 294 kts | 164° |
| 2026-05-04 15:32 | 24.75608 | 46.84322 | 9213 ft | 298 kts | 167° |
| 2026-05-04 15:33 | 24.71539 | 46.85380 | 10390 ft | 312 kts | 166° |
| 2026-05-04 15:34 | 24.64540 | 46.86304 | 10892 ft | 369 kts | 199° |
| 2026-05-04 15:34 | 24.62327 | 46.84891 | 11423 ft | 372 kts | 223° |
| 2026-05-04 15:34 | 24.59542 | 46.80153 | 12804 ft | 371 kts | 243° |
| 2026-05-04 15:35 | 24.57137 | 46.75147 | 13975 ft | 378 kts | 242° |
| 2026-05-04 15:35 | 24.55881 | 46.72608 | 14576 ft | 380 kts | 242° |
| 2026-05-04 15:35 | 24.54606 | 46.70058 | 15161 ft | 382 kts | 242° |
| 2026-05-04 15:36 | 24.53603 | 46.64406 | 16283 ft | 386 kts | 278° |
| 2026-05-04 15:36 | 24.54371 | 46.61584 | 16831 ft | 390 kts | 296° |
| 2026-05-04 15:36 | 24.55719 | 46.58999 | 17397 ft | 392 kts | 300° |
| 2026-05-04 15:37 | 24.57145 | 46.56454 | 17896 ft | 395 kts | 301° |
| 2026-05-04 15:37 | 24.58588 | 46.53905 | 18388 ft | 397 kts | 301° |
| 2026-05-04 15:37 | 24.60045 | 46.51315 | 18872 ft | 400 kts | 300° |
| 2026-05-04 15:37 | 24.61488 | 46.48724 | 19312 ft | 404 kts | 300° |
| 2026-05-04 15:38 | 24.62951 | 46.46074 | 19756 ft | 407 kts | 300° |
| 2026-05-04 15:38 | 24.64396 | 46.43442 | 20195 ft | 410 kts | 300° |
| 2026-05-04 15:38 | 24.65881 | 46.40730 | 20625 ft | 412 kts | 300° |
| 2026-05-04 15:38 | 24.67365 | 46.38015 | 21033 ft | 415 kts | 300° |
| 2026-05-04 15:39 | 24.68859 | 46.35279 | 21417 ft | 418 kts | 300° |
| 2026-05-04 15:39 | 24.70363 | 46.32528 | 21799 ft | 421 kts | 300° |
| 2026-05-04 15:39 | 24.73394 | 46.26976 | 22535 ft | 426 kts | 300° |
| 2026-05-04 15:40 | 24.74924 | 46.24169 | 22887 ft | 429 kts | 300° |
| 2026-05-04 15:40 | 24.76454 | 46.21359 | 23235 ft | 431 kts | 300° |
| 2026-05-04 15:40 | 24.77998 | 46.18521 | 23557 ft | 433 kts | 300° |
| 2026-05-04 15:40 | 24.79548 | 46.15671 | 23853 ft | 436 kts | 300° |
| 2026-05-04 15:41 | 24.81110 | 46.12796 | 24164 ft | 439 kts | 300° |
| 2026-05-04 15:41 | 24.82679 | 46.09906 | 24498 ft | 440 kts | 300° |
| 2026-05-04 15:41 | 24.84254 | 46.07005 | 24816 ft | 442 kts | 300° |
| 2026-05-04 15:41 | 24.85832 | 46.04095 | 25140 ft | 443 kts | 300° |
| 2026-05-04 15:42 | 24.87412 | 46.01181 | 25439 ft | 445 kts | 300° |
| 2026-05-04 15:42 | 24.89000 | 45.98248 | 25713 ft | 447 kts | 299° |
| 2026-05-04 15:42 | 24.90595 | 45.95303 | 26007 ft | 448 kts | 299° |
| 2026-05-04 15:42 | 24.92191 | 45.92357 | 26284 ft | 449 kts | 299° |
| 2026-05-04 15:43 | 24.93793 | 45.89395 | 26541 ft | 451 kts | 299° |
| 2026-05-04 15:43 | 24.95379 | 45.86459 | 26787 ft | 452 kts | 299° |
| 2026-05-04 15:43 | 24.96985 | 45.83486 | 27033 ft | 453 kts | 299° |
| 2026-05-04 15:43 | 24.98605 | 45.80485 | 27266 ft | 455 kts | 299° |
| 2026-05-04 15:44 | 25.00222 | 45.77486 | 27494 ft | 457 kts | 299° |
| 2026-05-04 15:44 | 25.01846 | 45.74474 | 27725 ft | 458 kts | 299° |
| 2026-05-04 15:44 | 25.03474 | 45.71453 | 27974 ft | 458 kts | 298° |
| 2026-05-04 15:44 | 25.05079 | 45.68423 | 28222 ft | 458 kts | 295° |
| 2026-05-04 15:45 | 25.06165 | 45.65147 | 28475 ft | 454 kts | 279° |
| 2026-05-04 15:45 | 25.06687 | 45.61730 | 28864 ft | 450 kts | 278° |
| 2026-05-04 15:45 | 25.07212 | 45.58332 | 29206 ft | 449 kts | 278° |
| 2026-05-04 15:45 | 25.07756 | 45.54951 | 29509 ft | 448 kts | 279° |
| 2026-05-04 15:46 | 25.08316 | 45.51568 | 29814 ft | 447 kts | 279° |
| 2026-05-04 15:46 | 25.08883 | 45.48196 | 30156 ft | 446 kts | 279° |
| 2026-05-04 15:46 | 25.09451 | 45.44847 | 30491 ft | 444 kts | 279° |
| 2026-05-04 15:46 | 25.10019 | 45.41499 | 30783 ft | 444 kts | 279° |
| 2026-05-04 15:47 | 25.10587 | 45.38148 | 31084 ft | 444 kts | 279° |
| 2026-05-04 15:47 | 25.11152 | 45.34809 | 31387 ft | 443 kts | 279° |
| 2026-05-04 15:47 | 25.11715 | 45.31474 | 31693 ft | 442 kts | 278° |
| 2026-05-04 15:47 | 25.12276 | 45.28149 | 32020 ft | 440 kts | 278° |
| 2026-05-04 15:48 | 25.12835 | 45.24824 | 32322 ft | 440 kts | 278° |
| 2026-05-04 15:48 | 25.13391 | 45.21511 | 32593 ft | 440 kts | 278° |
| 2026-05-04 15:48 | 25.14498 | 45.14895 | 33213 ft | 437 kts | 278° |
| 2026-05-04 15:49 | 25.15048 | 45.11605 | 33556 ft | 435 kts | 278° |
| 2026-05-04 15:49 | 25.15593 | 45.08332 | 33866 ft | 433 kts | 278° |
| 2026-05-04 15:49 | 25.16691 | 45.01744 | 33891 ft | 436 kts | 278° |
| 2026-05-04 15:50 | 25.17782 | 44.95185 | 33892 ft | 433 kts | 278° |
| 2026-05-04 15:50 | 25.18859 | 44.88674 | 33896 ft | 430 kts | 278° |
| 2026-05-04 15:51 | 25.19929 | 44.82191 | 33891 ft | 429 kts | 278° |
| 2026-05-04 15:51 | 25.20995 | 44.75720 | 33890 ft | 428 kts | 278° |
| 2026-05-04 15:52 | 25.22051 | 44.69286 | 33889 ft | 429 kts | 278° |
| 2026-05-04 15:52 | 25.23113 | 44.62803 | 33893 ft | 429 kts | 278° |
| 2026-05-04 15:53 | 25.24174 | 44.56304 | 33896 ft | 430 kts | 278° |
| 2026-05-04 15:53 | 25.25235 | 44.49795 | 33896 ft | 431 kts | 278° |
| 2026-05-04 15:54 | 25.26427 | 44.43288 | 33890 ft | 433 kts | 279° |
| 2026-05-04 15:54 | 25.27485 | 44.37840 | 33894 ft | 433 kts | 279° |
| 2026-05-04 15:55 | 25.28744 | 44.31318 | 33891 ft | 434 kts | 279° |
| 2026-05-04 15:55 | 25.29979 | 44.24831 | 33888 ft | 435 kts | 279° |
| 2026-05-04 15:56 | 25.31214 | 44.18292 | 33892 ft | 435 kts | 279° |
| 2026-05-04 15:56 | 25.32446 | 44.11748 | 33892 ft | 434 kts | 279° |
| 2026-05-04 15:57 | 25.33671 | 44.05216 | 33886 ft | 434 kts | 279° |
| 2026-05-04 15:57 | 25.34893 | 43.98688 | 33883 ft | 433 kts | 279° |
| 2026-05-04 15:58 | 25.36109 | 43.92178 | 33888 ft | 432 kts | 279° |
| 2026-05-04 15:58 | 25.37320 | 43.85678 | 33879 ft | 431 kts | 279° |
| 2026-05-04 15:59 | 25.38524 | 43.79194 | 33878 ft | 430 kts | 279° |
| 2026-05-04 15:59 | 25.39724 | 43.72722 | 33878 ft | 429 kts | 279° |
| 2026-05-04 16:00 | 25.40919 | 43.66261 | 33893 ft | 429 kts | 279° |
| 2026-05-04 16:00 | 25.42111 | 43.59795 | 33891 ft | 429 kts | 279° |
| 2026-05-04 16:01 | 25.43299 | 43.53331 | 33885 ft | 429 kts | 279° |
| 2026-05-04 16:01 | 25.44485 | 43.46869 | 33880 ft | 429 kts | 279° |
| 2026-05-04 16:02 | 25.45668 | 43.40402 | 33879 ft | 429 kts | 278° |
| 2026-05-04 16:03 | 25.47438 | 43.30694 | 33879 ft | 429 kts | 279° |
| 2026-05-04 16:03 | 25.48618 | 43.24211 | 33878 ft | 430 kts | 279° |
| 2026-05-04 16:04 | 25.49786 | 43.17766 | 33878 ft | 430 kts | 278° |
| 2026-05-04 16:04 | 25.51545 | 43.08029 | 33882 ft | 430 kts | 278° |
| 2026-05-04 16:05 | 25.52713 | 43.01542 | 33893 ft | 430 kts | 278° |
| 2026-05-04 16:06 | 25.54471 | 42.91819 | 33888 ft | 429 kts | 278° |
| 2026-05-04 16:07 | 25.56808 | 42.78869 | 33880 ft | 429 kts | 278° |
| 2026-05-04 16:08 | 25.59129 | 42.65926 | 33894 ft | 428 kts | 278° |
| 2026-05-04 16:09 | 25.62005 | 42.49796 | 33885 ft | 427 kts | 278° |
| 2026-05-04 16:10 | 25.64284 | 42.36938 | 33897 ft | 424 kts | 278° |
| 2026-05-04 16:11 | 25.66603 | 42.24115 | 33893 ft | 425 kts | 282° |
| 2026-05-04 16:12 | 25.71737 | 42.05304 | 33898 ft | 424 kts | 283° |
| 2026-05-04 16:13 | 25.75112 | 41.92768 | 33911 ft | 424 kts | 283° |
| 2026-05-04 16:14 | 25.78463 | 41.80227 | 33906 ft | 424 kts | 283° |
| 2026-05-04 16:16 | 25.82643 | 41.64519 | 33908 ft | 425 kts | 283° |
| 2026-05-04 16:17 | 25.86803 | 41.48811 | 33925 ft | 426 kts | 283° |
| 2026-05-04 16:18 | 25.90128 | 41.36200 | 33928 ft | 425 kts | 283° |
| 2026-05-04 16:19 | 25.94269 | 41.20431 | 33926 ft | 425 kts | 283° |
| 2026-05-04 16:20 | 25.98394 | 41.04645 | 33925 ft | 426 kts | 283° |
| 2026-05-04 16:22 | 26.02504 | 40.88843 | 33928 ft | 425 kts | 283° |
| 2026-05-04 16:23 | 26.07396 | 40.69927 | 33927 ft | 423 kts | 283° |
| 2026-05-04 16:25 | 26.12231 | 40.51074 | 33922 ft | 422 kts | 282° |
| 2026-05-04 16:26 | 26.17835 | 40.29094 | 33927 ft | 422 kts | 282° |
| 2026-05-04 16:28 | 26.21819 | 40.13382 | 33916 ft | 422 kts | 282° |
| 2026-05-04 16:29 | 26.27369 | 39.91367 | 33916 ft | 422 kts | 282° |
| 2026-05-04 16:31 | 26.31306 | 39.75661 | 33920 ft | 422 kts | 282° |
| 2026-05-04 16:32 | 26.36025 | 39.56735 | 33920 ft | 423 kts | 282° |
| 2026-05-04 16:33 | 26.39197 | 39.43925 | 33925 ft | 437 kts | 282° |
| 2026-05-04 16:34 | 26.41639 | 39.34046 | 33910 ft | 442 kts | 282° |
| 2026-05-04 16:35 | 26.46734 | 39.14278 | 33905 ft | 441 kts | 283° |
| 2026-05-04 16:36 | 26.49360 | 39.04441 | 33910 ft | 441 kts | 283° |
| 2026-05-04 16:37 | 26.51948 | 38.94652 | 33913 ft | 440 kts | 283° |
| 2026-05-04 16:38 | 26.55395 | 38.81545 | 33914 ft | 440 kts | 283° |
| 2026-05-04 16:39 | 26.59683 | 38.65170 | 33918 ft | 439 kts | 283° |
| 2026-05-04 16:40 | 26.63101 | 38.52064 | 33915 ft | 439 kts | 283° |
| 2026-05-04 16:41 | 26.67062 | 38.36799 | 33917 ft | 439 kts | 283° |
| 2026-05-04 16:43 | 26.71294 | 38.20413 | 33913 ft | 439 kts | 283° |
| 2026-05-04 16:43 | 26.73823 | 38.10576 | 33917 ft | 439 kts | 283° |
| 2026-05-04 16:45 | 26.78863 | 37.90897 | 33905 ft | 438 kts | 283° |
| 2026-05-04 16:46 | 26.83031 | 37.74509 | 33911 ft | 438 kts | 283° |
| 2026-05-04 16:47 | 26.86354 | 37.61391 | 33905 ft | 438 kts | 283° |
| 2026-05-04 16:48 | 26.89665 | 37.48268 | 33920 ft | 438 kts | 283° |
| 2026-05-04 16:49 | 26.92966 | 37.35118 | 33913 ft | 438 kts | 283° |
| 2026-05-04 16:50 | 26.96242 | 37.22012 | 33913 ft | 438 kts | 282° |
| 2026-05-04 16:51 | 26.98699 | 37.12151 | 33914 ft | 438 kts | 283° |
| 2026-05-04 16:52 | 27.01964 | 36.98999 | 33916 ft | 438 kts | 282° |
| 2026-05-04 16:53 | 27.04409 | 36.89111 | 33919 ft | 439 kts | 282° |
| 2026-05-04 16:54 | 27.07654 | 36.75935 | 33921 ft | 438 kts | 282° |
| 2026-05-04 16:55 | 27.12489 | 36.56196 | 33915 ft | 438 kts | 282° |
| 2026-05-04 16:56 | 27.16496 | 36.39744 | 33919 ft | 438 kts | 282° |
| 2026-05-04 16:57 | 27.18897 | 36.29840 | 33930 ft | 438 kts | 282° |
| 2026-05-04 16:58 | 27.22089 | 36.16629 | 33929 ft | 438 kts | 282° |
| 2026-05-04 17:00 | 27.26845 | 35.96821 | 33929 ft | 438 kts | 282° |
| 2026-05-04 17:01 | 27.30790 | 35.80291 | 33929 ft | 438 kts | 282° |
| 2026-05-04 17:02 | 27.33930 | 35.67059 | 33924 ft | 438 kts | 282° |
| 2026-05-04 17:03 | 27.36278 | 35.57137 | 33927 ft | 437 kts | 282° |
| 2026-05-04 17:03 | 27.38615 | 35.47225 | 33927 ft | 437 kts | 282° |
| 2026-05-04 17:04 | 27.41708 | 35.34050 | 33927 ft | 437 kts | 282° |
| 2026-05-04 17:05 | 27.44797 | 35.20831 | 33936 ft | 437 kts | 282° |
| 2026-05-04 17:06 | 27.47106 | 35.10911 | 33936 ft | 437 kts | 282° |
| 2026-05-04 17:07 | 27.49161 | 35.02048 | 33936 ft | 437 kts | 282° |
| 2026-05-04 17:07 | 27.51379 | 34.94475 | 33927 ft | 443 kts | 295° |
| 2026-05-04 17:08 | 27.57222 | 34.86344 | 33934 ft | 452 kts | 313° |
| 2026-05-04 17:09 | 27.61860 | 34.81547 | 33926 ft | 452 kts | 313° |
| 2026-05-04 17:09 | 27.66481 | 34.76736 | 33925 ft | 452 kts | 313° |
| 2026-05-04 17:10 | 27.77714 | 34.64834 | 33920 ft | 451 kts | 313° |
| 2026-05-04 17:11 | 27.82287 | 34.59971 | 33916 ft | 451 kts | 313° |
| 2026-05-04 17:12 | 27.89133 | 34.52681 | 33916 ft | 451 kts | 313° |
| 2026-05-04 17:13 | 28.00481 | 34.40484 | 33913 ft | 448 kts | 308° |
| 2026-05-04 17:14 | 28.08304 | 34.29646 | 33909 ft | 445 kts | 305° |
| 2026-05-04 17:15 | 28.14140 | 34.21468 | 33908 ft | 445 kts | 306° |
| 2026-05-04 17:16 | 28.21968 | 34.10603 | 33930 ft | 445 kts | 305° |
| 2026-05-04 17:17 | 28.29804 | 33.99695 | 33921 ft | 446 kts | 305° |
| 2026-05-04 17:18 | 28.37632 | 33.88774 | 33936 ft | 446 kts | 305° |
| 2026-05-04 17:19 | 28.45457 | 33.77827 | 33936 ft | 446 kts | 305° |
| 2026-05-04 17:20 | 28.53267 | 33.66871 | 33957 ft | 445 kts | 305° |
| 2026-05-04 17:20 | 28.59098 | 33.58665 | 33971 ft | 444 kts | 305° |
| 2026-05-04 17:21 | 28.66857 | 33.47728 | 33975 ft | 444 kts | 305° |
| 2026-05-04 17:22 | 28.70624 | 33.42417 | 33972 ft | 443 kts | 305° |
| 2026-05-04 17:23 | 28.78384 | 33.31456 | 33978 ft | 442 kts | 305° |
| 2026-05-04 17:23 | 28.82151 | 33.26123 | 33971 ft | 428 kts | 305° |
| 2026-05-04 17:24 | 28.84028 | 33.23468 | 33636 ft | 420 kts | 304° |
| 2026-05-04 17:24 | 28.89410 | 33.15831 | 32402 ft | 406 kts | 304° |
| 2026-05-04 17:25 | 28.91171 | 33.13328 | 31976 ft | 402 kts | 304° |
| 2026-05-04 17:25 | 28.94643 | 33.08387 | 31131 ft | 396 kts | 304° |
| 2026-05-04 17:26 | 28.98062 | 33.03519 | 30292 ft | 390 kts | 304° |
| 2026-05-04 17:26 | 29.03095 | 32.96339 | 29026 ft | 381 kts | 304° |
| 2026-05-04 17:27 | 29.06386 | 32.91640 | 28176 ft | 376 kts | 304° |
| 2026-05-04 17:27 | 29.09624 | 32.87013 | 27335 ft | 370 kts | 304° |
| 2026-05-04 17:28 | 29.12812 | 32.82449 | 26508 ft | 365 kts | 304° |
| 2026-05-04 17:29 | 29.17502 | 32.75723 | 25290 ft | 357 kts | 304° |
| 2026-05-04 17:29 | 29.22091 | 32.69135 | 24090 ft | 349 kts | 304° |
| 2026-05-04 17:30 | 29.26085 | 32.63393 | 23045 ft | 343 kts | 304° |
| 2026-05-04 17:31 | 29.29031 | 32.59148 | 22268 ft | 338 kts | 304° |
| 2026-05-04 17:31 | 29.33360 | 32.52848 | 21092 ft | 333 kts | 304° |
| 2026-05-04 17:32 | 29.36205 | 32.48693 | 20332 ft | 329 kts | 304° |
| 2026-05-04 17:33 | 29.40415 | 32.42544 | 19211 ft | 324 kts | 304° |
| 2026-05-04 17:33 | 29.41804 | 32.40515 | 18842 ft | 322 kts | 304° |
| 2026-05-04 17:34 | 29.45907 | 32.34512 | 17751 ft | 316 kts | 304° |
| 2026-05-04 17:34 | 29.47258 | 32.32534 | 17391 ft | 314 kts | 304° |
| 2026-05-04 17:35 | 29.51258 | 32.26671 | 16327 ft | 308 kts | 304° |
| 2026-05-04 17:35 | 29.53882 | 32.22820 | 15618 ft | 305 kts | 305° |
| 2026-05-04 17:35 | 29.55185 | 32.20907 | 15274 ft | 303 kts | 304° |
| 2026-05-04 17:36 | 29.56462 | 32.19030 | 14924 ft | 301 kts | 304° |
| 2026-05-04 17:36 | 29.57742 | 32.17146 | 14577 ft | 299 kts | 305° |
| 2026-05-04 17:36 | 29.59019 | 32.15267 | 14227 ft | 297 kts | 305° |
| 2026-05-04 17:36 | 29.60289 | 32.13398 | 13882 ft | 296 kts | 305° |
| 2026-05-04 17:37 | 29.61551 | 32.11540 | 13538 ft | 294 kts | 305° |
| 2026-05-04 17:37 | 29.62804 | 32.09695 | 13196 ft | 293 kts | 305° |
| 2026-05-04 17:37 | 29.64054 | 32.07854 | 12853 ft | 291 kts | 305° |
| 2026-05-04 17:37 | 29.65297 | 32.06022 | 12510 ft | 290 kts | 305° |
| 2026-05-04 17:38 | 29.66530 | 32.04203 | 12179 ft | 288 kts | 305° |
| 2026-05-04 17:38 | 29.67760 | 32.02387 | 11834 ft | 287 kts | 305° |
| 2026-05-04 17:38 | 29.68985 | 32.00579 | 11495 ft | 286 kts | 306° |
| 2026-05-04 17:38 | 29.70207 | 31.98776 | 11158 ft | 285 kts | 306° |
| 2026-05-04 17:39 | 29.72625 | 31.95196 | 10498 ft | 282 kts | 306° |
| 2026-05-04 17:39 | 29.73809 | 31.93448 | 10382 ft | 273 kts | 306° |
| 2026-05-04 17:39 | 29.74959 | 31.91749 | 10245 ft | 265 kts | 307° |
| 2026-05-04 17:40 | 29.76072 | 31.90104 | 10129 ft | 257 kts | 307° |
| 2026-05-04 17:40 | 29.77158 | 31.88495 | 9934 ft | 253 kts | 307° |
| 2026-05-04 17:40 | 29.78234 | 31.86901 | 9673 ft | 251 kts | 307° |
| 2026-05-04 17:40 | 29.79287 | 31.85297 | 9413 ft | 251 kts | 306° |
| 2026-05-04 17:41 | 29.80564 | 31.83918 | 9128 ft | 258 kts | 331° |
| 2026-05-04 17:41 | 29.82270 | 31.83212 | 8901 ft | 264 kts | 343° |
| 2026-05-04 17:41 | 29.84063 | 31.82670 | 8657 ft | 269 kts | 344° |
| 2026-05-04 17:41 | 29.85869 | 31.82145 | 8444 ft | 265 kts | 345° |
| 2026-05-04 17:42 | 29.87649 | 31.81633 | 8176 ft | 264 kts | 345° |
| 2026-05-04 17:42 | 29.89417 | 31.81126 | 8094 ft | 261 kts | 345° |
| 2026-05-04 17:42 | 29.91187 | 31.80619 | 8086 ft | 263 kts | 345° |
| 2026-05-04 17:42 | 29.92975 | 31.80104 | 8081 ft | 265 kts | 345° |
| 2026-05-04 17:43 | 29.94749 | 31.79596 | 8033 ft | 257 kts | 345° |
| 2026-05-04 17:43 | 29.96435 | 31.79115 | 7892 ft | 245 kts | 345° |
| 2026-05-04 17:43 | 29.98074 | 31.78647 | 7569 ft | 241 kts | 345° |
| 2026-05-04 17:43 | 29.99695 | 31.78185 | 7178 ft | 240 kts | 345° |
| 2026-05-04 17:44 | 30.01312 | 31.77722 | 6790 ft | 239 kts | 345° |
| 2026-05-04 17:44 | 30.02916 | 31.77265 | 6435 ft | 237 kts | 345° |
| 2026-05-04 17:44 | 30.04513 | 31.76812 | 6117 ft | 235 kts | 345° |
| 2026-05-04 17:44 | 30.06120 | 31.76351 | 6099 ft | 240 kts | 345° |
| 2026-05-04 17:45 | 30.07741 | 31.75882 | 6078 ft | 240 kts | 345° |
| 2026-05-04 17:45 | 30.09357 | 31.75418 | 6070 ft | 238 kts | 345° |
| 2026-05-04 17:45 | 30.10956 | 31.74958 | 6063 ft | 236 kts | 345° |
| 2026-05-04 17:45 | 30.12541 | 31.74502 | 6070 ft | 234 kts | 345° |
| 2026-05-04 17:46 | 30.14117 | 31.74050 | 6072 ft | 234 kts | 345° |
| 2026-05-04 17:46 | 30.15694 | 31.73598 | 6074 ft | 233 kts | 345° |
| 2026-05-04 17:46 | 30.17247 | 31.73154 | 6073 ft | 233 kts | 345° |
| 2026-05-04 17:46 | 30.18813 | 31.72705 | 5989 ft | 232 kts | 345° |
| 2026-05-04 17:47 | 30.20382 | 31.72255 | 5726 ft | 233 kts | 345° |
| 2026-05-04 17:47 | 30.21961 | 31.71805 | 5439 ft | 234 kts | 345° |
| 2026-05-04 17:47 | 30.23537 | 31.71359 | 5178 ft | 233 kts | 345° |
| 2026-05-04 17:47 | 30.25016 | 31.70637 | 4881 ft | 231 kts | 320° |
| 2026-05-04 17:48 | 30.26070 | 31.69253 | 4652 ft | 229 kts | 306° |
| 2026-05-04 17:48 | 30.26962 | 31.67763 | 4565 ft | 221 kts | 297° |
| 2026-05-04 17:48 | 30.27274 | 31.66081 | 4426 ft | 215 kts | 261° |
| 2026-05-04 17:48 | 30.26618 | 31.64555 | 4185 ft | 216 kts | 231° |
| 2026-05-04 17:49 | 30.25657 | 31.63260 | 4109 ft | 205 kts | 232° |
| 2026-05-04 17:49 | 30.24761 | 31.62032 | 3960 ft | 197 kts | 232° |
| 2026-05-04 17:49 | 30.23879 | 31.60841 | 3686 ft | 195 kts | 231° |
| 2026-05-04 17:49 | 30.22995 | 31.59656 | 3368 ft | 194 kts | 231° |
| 2026-05-04 17:50 | 30.22135 | 31.58507 | 3216 ft | 182 kts | 231° |
| 2026-05-04 17:50 | 30.21319 | 31.57417 | 2971 ft | 178 kts | 231° |
| 2026-05-04 17:50 | 30.20515 | 31.56342 | 2660 ft | 176 kts | 231° |
| 2026-05-04 17:50 | 30.19728 | 31.55292 | 2408 ft | 166 kts | 231° |
| 2026-05-04 17:51 | 30.18991 | 31.54307 | 2175 ft | 159 kts | 232° |
| 2026-05-04 17:51 | 30.18246 | 31.53307 | 2160 ft | 166 kts | 232° |
| 2026-05-04 17:51 | 30.17495 | 31.52304 | 2073 ft | 163 kts | 232° |
| 2026-05-04 17:51 | 30.16764 | 31.51327 | 1890 ft | 158 kts | 232° |
| 2026-05-04 17:52 | 30.16055 | 31.50378 | 1685 ft | 154 kts | 232° |
| 2026-05-04 17:52 | 30.15356 | 31.49443 | 1483 ft | 154 kts | 232° |
| 2026-05-04 17:52 | 30.14651 | 31.48498 | 1290 ft | 155 kts | 232° |
| 2026-05-04 17:52 | 30.13949 | 31.47559 | 1078 ft | 154 kts | 232° |
| 2026-05-04 17:53 | 30.13248 | 31.46620 | 873 ft | 153 kts | 231° |
| 2026-05-04 17:53 | 30.12552 | 31.45690 | 655 ft | 153 kts | 231° |
| 2026-05-04 17:53 | 30.11863 | 31.44761 | 460 ft | 151 kts | 231° |
| 2026-05-04 17:53 | 30.11239 | 31.43933 | 448 ft | 117 kts | 229° |
| 2026-05-04 17:54 | 30.10800 | 31.43351 | 448 ft | 75 kts | 229° |
| 2026-05-04 17:54 | 30.10547 | 31.42970 | 448 ft | 51 kts | 244° |
| 2026-05-04 17:54 | 30.10480 | 31.42740 | 448 ft | 14 kts | 254° |
| 2026-05-04 17:54 | 30.10454 | 31.42635 | 448 ft | 13 kts | 254° |
| 2026-05-04 17:55 | 30.10414 | 31.42542 | 448 ft | 13 kts | 233° |
| 2026-05-04 17:55 | 30.10356 | 31.42465 | 448 ft | 13 kts | 230° |
| 2026-05-04 17:55 | 30.10300 | 31.42389 | 448 ft | 12 kts | 229° |
| 2026-05-04 17:55 | 30.10245 | 31.42316 | 448 ft | 12 kts | 229° |
| 2026-05-04 17:56 | 30.10192 | 31.42245 | 448 ft | 12 kts | 230° |
| 2026-05-04 17:56 | 30.10140 | 31.42175 | 448 ft | 11 kts | 229° |
| 2026-05-04 17:56 | 30.10089 | 31.42108 | 448 ft | 11 kts | 229° |
| 2026-05-04 17:56 | 30.10040 | 31.42042 | 448 ft | 11 kts | 231° |
| 2026-05-04 17:57 | 30.10022 | 31.41964 | 448 ft | 10 kts | 287° |
| 2026-05-04 17:57 | 30.10026 | 31.41883 | 449 ft | 10 kts | 254° |
| 2026-05-04 17:57 | 30.09988 | 31.41817 | 449 ft | 10 kts | 231° |
| 2026-05-04 17:57 | 30.09945 | 31.41757 | 449 ft | 10 kts | 229° |
| 2026-05-04 17:58 | 30.09916 | 31.41692 | 449 ft | 9 kts | 253° |
| 2026-05-04 17:58 | 30.09905 | 31.41617 | 449 ft | 9 kts | 261° |
| 2026-05-04 17:58 | 30.09892 | 31.41546 | 449 ft | 9 kts | 258° |
| 2026-05-04 17:58 | 30.09881 | 31.41478 | 449 ft | 9 kts | 260° |
| 2026-05-04 17:59 | 30.09871 | 31.41411 | 449 ft | 8 kts | 260° |
| 2026-05-04 17:59 | 30.09860 | 31.41346 | 450 ft | 8 kts | 259° |
| 2026-05-04 17:59 | 30.09840 | 31.41222 | 450 ft | 8 kts | 259° |
| 2026-05-04 18:00 | 30.09831 | 31.41165 | 449 ft | 8 kts | 259° |
| 2026-05-04 18:00 | 30.09824 | 31.41122 | 448 ft | 8 kts | 259° |
| 2026-05-04 18:00 | 30.09809 | 31.41025 | 436 ft | 11 kts | 258° |
| 2026-05-04 18:00 | 30.09793 | 31.40932 | 435 ft | 13 kts | 259° |
| 2026-05-04 18:01 | 30.09776 | 31.40820 | 432 ft | 15 kts | 260° |
| 2026-05-04 18:01 | 30.09821 | 31.40706 | 423 ft | 19 kts | 320° |
| 2026-05-04 18:01 | 30.09933 | 31.40596 | 415 ft | 24 kts | 319° |
| 2026-05-04 18:02 | 30.10091 | 31.40438 | 398 ft | 10 kts | 319° |
| 2026-05-04 18:02 | 30.10157 | 31.40372 | 392 ft | 15 kts | 319° |
| 2026-05-04 18:02 | 30.10244 | 31.40286 | 388 ft | 19 kts | 320° |
| 2026-05-04 18:02 | 30.10342 | 31.40190 | 387 ft | 19 kts | 320° |
| 2026-05-04 18:03 | 30.10405 | 31.40129 | 388 ft | 5 kts | 320° |
| 2026-05-04 18:03 | 30.10435 | 31.40116 | 391 ft | 5 kts | 354° |
| 2026-05-04 18:03 | 30.10471 | 31.40120 | 390 ft | 6 kts | 20° |
| 2026-05-04 18:03 | 30.10507 | 31.40152 | 390 ft | 7 kts | 47° |
| 2026-05-04 18:04 | 30.10545 | 31.40201 | 389 ft | 9 kts | 49° |
| 2026-05-04 18:04 | 30.10590 | 31.40260 | 389 ft | 10 kts | 49° |
| 2026-05-04 18:04 | 30.10694 | 31.40248 | 387 ft | 12 kts | 256° |
| 2026-05-04 18:05 | 30.10632 | 31.40160 | 383 ft | 13 kts | 229° |
| 2026-05-04 18:05 | 30.10563 | 31.40069 | 378 ft | 17 kts | 229° |
| 2026-05-04 18:05 | 30.10517 | 31.40008 | 378 ft | 11 kts | 229° |
| 2026-05-04 18:05 | 30.10479 | 31.39931 | 378 ft | 12 kts | 266° |
| 2026-05-04 18:06 | 30.10618 | 31.39821 | 369 ft | 7 kts | 345° |
| 2026-05-04 18:06 | 30.10677 | 31.39803 | 369 ft | 10 kts | 346° |
| 2026-05-04 18:06 | 30.10754 | 31.39781 | 369 ft | 12 kts | 345° |
| 2026-05-04 18:07 | 30.10829 | 31.39776 | 369 ft | 5 kts | 35° |
| 2026-05-04 18:07 | 30.10840 | 31.39808 | 369 ft | 6 kts | 73° |
| 2026-05-04 18:07 | 30.10844 | 31.39825 | 369 ft | 2 kts | 75° |
| 2026-05-04 18:07 | 30.10848 | 31.39845 | 369 ft | 2 kts | 76° |
| 2026-05-04 18:08 | 30.10851 | 31.39856 | 369 ft | 0 kts | 76° |